createdAt,value
2018-08-17T00:01:19.042Z,28.13
2018-08-17T00:03:53.698Z,28.12
2018-08-17T00:06:27.191Z,28.12
2018-08-17T00:09:00.626Z,28.09
2018-08-17T00:11:34.207Z,28.06
2018-08-17T00:14:07.784Z,28.08
2018-08-17T00:16:42.047Z,28.07
2018-08-17T00:19:15.636Z,28.05
2018-08-17T00:21:49.211Z,27.92
2018-08-17T00:24:22.787Z,27.74
2018-08-17T00:26:56.478Z,27.61
2018-08-17T00:29:31.411Z,27.49
2018-08-17T00:32:05.021Z,27.47
2018-08-17T00:34:38.717Z,27.46
2018-08-17T00:37:12.341Z,27.44
2018-08-17T00:39:45.809Z,27.42
2018-08-17T00:42:19.115Z,27.42
2018-08-17T00:44:52.117Z,27.44
2018-08-17T00:47:24.968Z,27.48
2018-08-17T00:49:57.970Z,27.57
2018-08-17T00:52:30.912Z,27.62
2018-08-17T00:55:03.736Z,27.60
2018-08-17T00:57:37.685Z,27.61
2018-08-17T01:00:10.912Z,27.59
2018-08-17T01:02:43.770Z,27.60
2018-08-17T01:05:16.730Z,27.60
2018-08-17T01:07:49.737Z,27.60
2018-08-17T01:10:22.824Z,27.58
2018-08-17T01:12:56.501Z,27.59
2018-08-17T01:15:31.431Z,27.59
2018-08-17T01:18:04.223Z,27.56
2018-08-17T01:20:37.101Z,27.57
2018-08-17T01:23:10.280Z,27.59
2018-08-17T01:25:43.128Z,27.59
2018-08-17T01:28:16.028Z,27.58
2018-08-17T01:30:49.042Z,27.58
2018-08-17T01:33:21.976Z,27.61
2018-08-17T01:35:54.859Z,27.65
2018-08-17T01:38:27.882Z,27.67
2018-08-17T01:41:01.054Z,27.69
2018-08-17T01:43:34.221Z,27.71
2018-08-17T01:46:07.242Z,27.73
2018-08-17T01:48:40.201Z,27.75
2018-08-17T01:51:13.102Z,27.77
2018-08-17T01:53:45.992Z,27.81
2018-08-17T01:56:19.488Z,27.81
2018-08-17T01:58:52.570Z,27.88
2018-08-17T02:01:26.198Z,27.90
2018-08-17T02:03:59.090Z,27.89
2018-08-17T02:06:32.070Z,27.88
2018-08-17T02:09:05.169Z,27.88
2018-08-17T02:11:38.096Z,27.89
2018-08-17T02:14:11.069Z,27.89
2018-08-17T02:16:43.983Z,27.92
2018-08-17T02:19:16.882Z,27.95
2018-08-17T02:21:49.861Z,27.97
2018-08-17T02:24:22.931Z,28.00
2018-08-17T02:26:57.040Z,28.02
2018-08-17T02:29:29.968Z,28.03
2018-08-17T02:32:03.790Z,28.06
2018-08-17T02:34:36.721Z,28.10
2018-08-17T02:37:10.259Z,28.10
2018-08-17T02:39:43.356Z,28.13
2018-08-17T02:42:17.416Z,28.12
2018-08-17T02:44:51.000Z,28.17
2018-08-17T02:47:24.578Z,28.21
2018-08-17T02:49:58.041Z,28.21
2018-08-17T02:52:31.593Z,28.24
2018-08-17T02:55:06.605Z,28.23
2018-08-17T02:57:40.270Z,28.23
2018-08-17T03:00:13.918Z,28.25
2018-08-17T03:02:47.119Z,28.27
2018-08-17T03:05:20.088Z,28.30
2018-08-17T03:07:52.958Z,28.34
2018-08-17T03:10:25.847Z,28.40
2018-08-17T03:12:59.526Z,28.44
2018-08-17T03:15:32.536Z,28.46
2018-08-17T03:18:05.495Z,28.45
2018-08-17T03:20:39.754Z,28.45
2018-08-17T03:23:12.667Z,28.45
2018-08-17T03:25:45.620Z,28.43
2018-08-17T03:28:18.654Z,28.38
2018-08-17T03:30:51.734Z,28.39
2018-08-17T03:33:24.862Z,28.42
2018-08-17T03:35:57.882Z,28.44
2018-08-17T03:38:30.886Z,28.44
2018-08-17T03:41:03.942Z,28.45
2018-08-17T03:43:36.889Z,28.49
2018-08-17T03:46:09.783Z,28.50
2018-08-17T03:48:42.640Z,28.49
2018-08-17T03:51:15.581Z,28.51
2018-08-17T03:53:48.618Z,28.53
2018-08-17T03:56:21.394Z,28.53
2018-08-17T03:58:54.301Z,28.59
2018-08-17T04:01:27.373Z,28.70
2018-08-17T04:04:00.748Z,28.75
2018-08-17T04:06:33.654Z,28.87
2018-08-17T04:09:07.369Z,29.01
2018-08-17T04:11:40.383Z,29.08
2018-08-17T04:14:13.234Z,29.20
2018-08-17T04:16:46.372Z,29.30
2018-08-17T04:19:19.267Z,29.39
2018-08-17T04:21:52.218Z,29.53
2018-08-17T04:24:25.189Z,29.70
2018-08-17T04:26:58.047Z,29.85
2018-08-17T04:29:30.864Z,30.01
2018-08-17T04:32:03.813Z,30.16
2018-08-17T04:34:36.832Z,30.30
2018-08-17T04:37:09.819Z,30.51
2018-08-17T04:39:43.277Z,30.78
2018-08-17T04:42:16.168Z,31.08
2018-08-17T04:44:49.207Z,31.44
2018-08-17T04:47:22.280Z,31.78
2018-08-17T04:49:55.184Z,32.09
2018-08-17T04:52:28.211Z,32.29
2018-08-17T04:55:01.180Z,32.41
2018-08-17T04:57:34.279Z,32.41
2018-08-17T05:00:08.647Z,32.44
2018-08-17T05:02:43.237Z,32.49
2018-08-17T05:05:16.297Z,32.50
2018-08-17T05:07:49.380Z,32.54
2018-08-17T05:10:22.409Z,32.59
2018-08-17T05:12:55.434Z,32.65
2018-08-17T05:15:29.540Z,32.74
2018-08-17T05:18:02.728Z,32.79
2018-08-17T05:20:35.604Z,32.81
2018-08-17T05:23:08.560Z,32.85
2018-08-17T05:25:41.484Z,32.81
2018-08-17T05:28:15.735Z,32.73
2018-08-17T05:30:49.309Z,32.73
2018-08-17T05:33:22.295Z,32.77
2018-08-17T05:35:55.324Z,32.81
2018-08-17T05:38:28.411Z,32.77
2018-08-17T05:41:01.360Z,32.79
2018-08-17T05:43:34.800Z,32.77
2018-08-17T05:46:07.650Z,32.79
2018-08-17T05:48:40.497Z,32.79
2018-08-17T05:51:13.581Z,33.08
2018-08-17T05:53:48.280Z,33.53
2018-08-17T05:56:21.232Z,34.02
2018-08-17T05:58:54.190Z,34.32
2018-08-17T06:01:27.165Z,34.39
2018-08-17T06:04:00.081Z,34.27
2018-08-17T06:06:33.023Z,34.26
2018-08-17T06:09:06.825Z,34.21
2018-08-17T06:11:40.004Z,34.23
2018-08-17T06:14:13.918Z,34.20
2018-08-17T06:16:46.910Z,34.10
2018-08-17T06:19:19.826Z,34.13
2018-08-17T06:21:53.112Z,34.05
2018-08-17T06:24:26.038Z,34.01
2018-08-17T06:26:59.111Z,34.19
2018-08-17T06:29:31.941Z,34.55
2018-08-17T06:32:04.851Z,34.61
2018-08-17T06:34:37.763Z,34.87
2018-08-17T06:37:11.415Z,34.83
2018-08-17T06:39:44.423Z,35.21
2018-08-17T06:42:17.430Z,35.15
2018-08-17T06:44:51.168Z,35.40
2018-08-17T06:47:24.916Z,35.47
2018-08-17T06:49:57.968Z,35.75
2018-08-17T06:52:30.891Z,35.79
2018-08-17T06:57:59.911Z,35.41
2018-08-17T07:00:34.150Z,35.72
2018-08-17T07:03:07.299Z,35.93
2018-08-17T07:05:40.282Z,36.02
2018-08-17T07:08:13.145Z,36.19
2018-08-17T07:10:46.233Z,36.46
2018-08-17T07:13:19.214Z,36.31
2018-08-17T07:15:52.146Z,36.14
2018-08-17T07:18:25.108Z,36.33
2018-08-17T07:20:58.005Z,36.39
2018-08-17T07:23:30.993Z,36.34
2018-08-17T07:26:03.972Z,36.29
2018-08-17T07:28:36.809Z,35.79
2018-08-17T07:31:09.661Z,35.83
2018-08-17T07:33:42.754Z,35.79
2018-08-17T07:36:15.805Z,36.09
2018-08-17T07:38:49.933Z,35.59
2018-08-17T07:41:22.932Z,35.30
2018-08-17T07:43:55.860Z,35.26
2018-08-17T07:46:30.453Z,35.58
2018-08-17T07:49:03.372Z,35.85
2018-08-17T07:51:36.261Z,35.67
2018-08-17T07:54:09.289Z,35.21
2018-08-17T07:56:42.253Z,35.46
2018-08-17T07:59:15.133Z,34.95
2018-08-17T08:01:47.979Z,34.58
2018-08-17T08:04:20.869Z,34.54
2018-08-17T08:06:53.801Z,34.22
2018-08-17T08:09:26.706Z,33.93
2018-08-17T08:11:59.626Z,34.23
2018-08-17T08:14:32.507Z,34.54
2018-08-17T08:17:05.515Z,34.49
2018-08-17T08:19:38.381Z,34.73
2018-08-17T08:22:11.239Z,34.92
2018-08-17T08:24:44.296Z,34.77
2018-08-17T08:27:17.260Z,34.56
2018-08-17T08:29:50.179Z,34.42
2018-08-17T08:32:23.091Z,34.63
2018-08-17T08:34:55.897Z,34.79
2018-08-17T08:37:28.724Z,34.61
2018-08-17T08:40:01.724Z,34.52
2018-08-17T08:42:34.819Z,34.65
2018-08-17T08:45:08.171Z,34.75
2018-08-17T08:47:45.436Z,34.78
2018-08-17T08:50:19.247Z,34.82
2018-08-17T08:52:52.426Z,34.77
2018-08-17T08:55:25.349Z,34.82
2018-08-17T08:57:58.446Z,34.91
2018-08-17T09:00:31.399Z,34.85
2018-08-17T09:03:04.243Z,34.56
2018-08-17T09:05:37.299Z,34.53
2018-08-17T09:08:10.524Z,34.24
2018-08-17T09:10:43.458Z,33.90
2018-08-17T09:13:16.414Z,33.94
2018-08-17T09:15:49.253Z,33.92
2018-08-17T09:18:22.165Z,34.03
2018-08-17T09:20:55.063Z,34.09
2018-08-17T09:23:27.930Z,34.15
2018-08-17T09:26:00.700Z,34.14
2018-08-17T09:28:33.598Z,34.14
2018-08-17T09:31:06.561Z,34.11
2018-08-17T09:33:39.666Z,34.04
2018-08-17T09:36:13.487Z,34.11
2018-08-17T09:38:47.379Z,34.10
2018-08-17T09:41:20.302Z,34.05
2018-08-17T09:43:53.132Z,34.08
2018-08-17T09:46:26.605Z,34.04
2018-08-17T09:48:59.546Z,34.01
2018-08-17T09:51:32.875Z,33.95
2018-08-17T09:54:05.718Z,33.87
2018-08-17T09:56:38.924Z,33.85
2018-08-17T09:59:12.165Z,33.79
2018-08-17T10:01:49.111Z,33.70
2018-08-17T10:04:25.996Z,33.62
2018-08-17T10:07:03.915Z,33.48
2018-08-17T10:09:40.782Z,33.37
2018-08-17T10:12:13.715Z,33.28
2018-08-17T10:14:46.648Z,33.12
2018-08-17T10:17:19.655Z,33.01
2018-08-17T10:19:52.547Z,32.93
2018-08-17T10:22:25.416Z,32.83
2018-08-17T10:25:12.859Z,32.69
2018-08-17T10:27:45.974Z,32.49
2018-08-17T10:30:19.589Z,32.33
2018-08-17T10:32:57.441Z,32.14
2018-08-17T10:35:36.094Z,31.98
2018-08-17T10:38:10.525Z,31.84
2018-08-17T10:40:43.637Z,31.75
2018-08-17T10:43:16.503Z,31.64
2018-08-17T10:45:49.389Z,31.56
2018-08-17T10:48:22.629Z,31.48
2018-08-17T10:50:59.073Z,31.43
2018-08-17T10:53:38.950Z,31.34
2018-08-17T10:56:11.886Z,31.27
2018-08-17T10:58:44.700Z,31.20
2018-08-17T11:01:17.788Z,31.15
2018-08-17T11:03:50.647Z,31.08
2018-08-17T11:06:24.126Z,31.01
2018-08-17T11:08:59.087Z,30.94
2018-08-17T11:11:34.595Z,30.87
2018-08-17T11:14:07.661Z,30.80
2018-08-17T11:16:40.819Z,30.74
2018-08-17T11:19:13.777Z,30.65
2018-08-17T11:21:46.747Z,30.57
2018-08-17T11:24:19.689Z,30.50
2018-08-17T11:26:52.560Z,30.44
2018-08-17T11:29:25.522Z,30.38
2018-08-17T11:31:58.416Z,30.33
2018-08-17T11:34:31.331Z,30.28
2018-08-17T11:37:04.354Z,30.24
2018-08-17T11:39:37.233Z,30.16
2018-08-17T11:42:10.230Z,30.09
2018-08-17T11:44:43.076Z,30.05
2018-08-17T11:47:16.019Z,30.01
2018-08-17T11:49:49.792Z,29.97
2018-08-17T11:52:22.765Z,29.92
2018-08-17T11:54:55.700Z,29.84
2018-08-17T11:57:28.677Z,29.76
2018-08-17T12:00:01.660Z,29.67
2018-08-17T12:02:34.569Z,29.64
2018-08-17T12:05:07.709Z,29.64
2018-08-17T12:07:40.963Z,29.65
2018-08-17T12:10:13.810Z,29.64
2018-08-17T12:12:49.481Z,29.63
2018-08-17T12:15:24.654Z,29.62
2018-08-17T12:17:58.924Z,29.56
2018-08-17T12:20:33.758Z,29.52
2018-08-17T12:23:08.898Z,29.47
2018-08-17T12:25:48.463Z,29.41
2018-08-17T12:28:21.789Z,29.32
2018-08-17T12:30:55.671Z,29.31
2018-08-17T12:33:30.345Z,29.30
2018-08-17T12:36:04.453Z,29.31
2018-08-17T12:38:37.714Z,29.30
2018-08-17T12:41:12.010Z,29.26
2018-08-17T12:43:46.931Z,29.25
2018-08-17T12:46:20.768Z,29.21
2018-08-17T12:48:54.504Z,29.18
2018-08-17T12:51:28.305Z,29.10
2018-08-17T12:54:02.848Z,29.10
2018-08-17T12:56:35.670Z,29.08
2018-08-17T12:59:09.850Z,29.06
2018-08-17T13:01:43.491Z,29.06
2018-08-17T13:04:17.604Z,29.07
2018-08-17T13:06:51.124Z,29.09
2018-08-17T13:09:25.033Z,29.07
2018-08-17T13:11:59.949Z,29.04
2018-08-17T13:14:33.310Z,28.99
2018-08-17T13:17:08.446Z,28.94
2018-08-17T13:19:41.734Z,28.93
2018-08-17T13:22:16.826Z,28.91
2018-08-17T13:24:50.952Z,28.88
2018-08-17T13:27:24.378Z,28.86
2018-08-17T13:29:58.100Z,28.82
2018-08-17T13:32:31.331Z,28.79
2018-08-17T13:35:04.867Z,28.75
2018-08-17T13:37:39.042Z,28.74
2018-08-17T13:40:13.288Z,28.75
2018-08-17T13:42:47.110Z,28.72
2018-08-17T13:45:22.426Z,28.67
2018-08-17T13:47:56.532Z,28.64
2018-08-17T13:50:29.553Z,28.63
2018-08-17T13:53:02.619Z,28.62
2018-08-17T13:55:35.518Z,28.59
2018-08-17T13:58:09.204Z,28.55
2018-08-17T14:00:42.114Z,28.53
2018-08-17T14:03:16.178Z,28.53
2018-08-17T14:05:49.102Z,28.53
2018-08-17T14:08:22.049Z,28.53
2018-08-17T14:10:55.120Z,28.54
2018-08-17T14:13:28.226Z,28.54
2018-08-17T14:16:01.152Z,28.54
2018-08-17T14:18:34.114Z,28.54
2018-08-17T14:21:07.040Z,28.56
2018-08-17T14:23:39.841Z,28.57
2018-08-17T14:26:12.789Z,28.54
2018-08-17T14:28:45.759Z,28.54
2018-08-17T14:31:18.767Z,28.52
2018-08-17T14:33:51.722Z,28.50
2018-08-17T14:36:25.306Z,28.50
2018-08-17T14:38:58.307Z,28.49
2018-08-17T14:41:31.197Z,28.48
2018-08-17T14:44:04.093Z,28.45
2018-08-17T14:46:37.000Z,28.44
2018-08-17T14:49:09.958Z,28.42
2018-08-17T14:51:44.048Z,28.39
2018-08-17T14:54:18.147Z,28.30
2018-08-17T14:56:51.853Z,28.26
2018-08-17T14:59:25.626Z,28.29
2018-08-17T15:02:00.512Z,28.32
2018-08-17T15:04:34.479Z,28.31
2018-08-17T15:07:08.703Z,28.35
2018-08-17T15:09:42.494Z,28.34
2018-08-17T15:12:17.023Z,28.35
2018-08-17T15:14:50.889Z,28.38
2018-08-17T15:17:25.184Z,28.36
2018-08-17T15:19:59.206Z,28.35
2018-08-17T15:22:33.581Z,28.36
2018-08-17T15:25:07.117Z,28.34
2018-08-17T15:27:40.886Z,28.31
2018-08-17T15:30:14.955Z,28.30
2018-08-17T15:32:47.972Z,28.31
2018-08-17T15:35:21.249Z,28.35
2018-08-17T15:37:55.784Z,28.35
2018-08-17T15:40:28.823Z,28.38
2018-08-17T15:43:08.777Z,28.40
2018-08-17T15:45:43.306Z,28.41
2018-08-17T15:48:18.159Z,28.43
2018-08-17T15:50:54.152Z,28.46
2018-08-17T15:53:29.430Z,28.47
2018-08-17T15:56:02.866Z,28.49
2018-08-17T15:58:38.785Z,28.48
2018-08-17T16:01:16.986Z,28.43
2018-08-17T16:03:53.384Z,28.39
2018-08-17T16:06:28.362Z,28.43
2018-08-17T16:09:05.160Z,28.42
2018-08-17T16:11:39.161Z,28.41
2018-08-17T16:14:14.667Z,28.41
2018-08-17T16:16:48.869Z,28.40
2018-08-17T16:19:25.895Z,28.33
2018-08-17T16:21:58.874Z,28.29
2018-08-17T16:24:33.758Z,28.24
2018-08-17T16:27:07.347Z,28.23
2018-08-17T16:29:40.576Z,28.22
2018-08-17T16:32:13.900Z,28.22
2018-08-17T16:34:46.976Z,28.24
2018-08-17T16:37:20.027Z,28.30
2018-08-17T16:39:56.728Z,28.34
2018-08-17T16:42:33.847Z,28.38
2018-08-17T16:45:07.843Z,28.39
2018-08-17T16:47:40.791Z,28.40
2018-08-17T16:50:13.993Z,28.41
2018-08-17T16:52:47.105Z,28.41
2018-08-17T16:55:19.991Z,28.43
2018-08-17T16:57:52.828Z,28.43
2018-08-17T17:00:25.753Z,28.44
2018-08-17T17:02:58.784Z,28.43
2018-08-17T17:05:31.811Z,28.42
2018-08-17T17:08:04.775Z,28.40
2018-08-17T17:10:37.959Z,28.34
2018-08-17T17:13:11.065Z,28.35
2018-08-17T17:15:45.228Z,28.33
2018-08-17T17:18:18.156Z,28.30
2018-08-17T17:20:51.071Z,28.26
2018-08-17T17:23:24.324Z,28.24
2018-08-17T17:25:57.425Z,28.21
2018-08-17T17:28:35.454Z,28.20
2018-08-17T17:31:08.457Z,28.15
2018-08-17T17:33:41.416Z,28.11
2018-08-17T17:36:14.966Z,28.05
2018-08-17T17:38:48.473Z,28.03
2018-08-17T17:41:21.688Z,28.02
2018-08-17T17:43:54.692Z,28.00
2018-08-17T17:46:27.566Z,27.98
2018-08-17T17:49:00.471Z,27.98
2018-08-17T17:51:33.303Z,27.98
2018-08-17T17:54:06.769Z,27.99
2018-08-17T17:56:39.780Z,27.98
2018-08-17T17:59:17.598Z,27.95
2018-08-17T18:01:50.605Z,27.92
2018-08-17T18:04:23.665Z,27.90
2018-08-17T18:06:56.556Z,27.92
2018-08-17T18:09:29.438Z,27.91
2018-08-17T18:12:02.473Z,27.92
2018-08-17T18:14:36.102Z,27.94
2018-08-17T18:17:09.062Z,27.94
2018-08-17T18:19:42.064Z,27.95
2018-08-17T18:22:27.622Z,27.98
2018-08-17T18:25:06.620Z,28.03
2018-08-17T18:27:39.494Z,28.07
2018-08-17T18:30:12.478Z,28.11
2018-08-17T18:32:46.440Z,28.14
2018-08-17T18:35:19.513Z,28.17
2018-08-17T18:37:52.502Z,28.17
2018-08-17T18:40:25.508Z,28.16
2018-08-17T18:42:58.392Z,28.15
2018-08-17T18:45:31.366Z,28.15
2018-08-17T18:48:04.298Z,28.14
2018-08-17T18:50:37.350Z,28.13
2018-08-17T18:53:10.273Z,28.14
2018-08-17T18:55:43.339Z,28.16
2018-08-17T18:58:16.260Z,28.15
2018-08-17T19:00:49.175Z,28.14
2018-08-17T19:03:23.052Z,28.12
2018-08-17T19:05:55.987Z,28.12
2018-08-17T19:08:28.885Z,28.13
2018-08-17T19:11:01.869Z,28.15
2018-08-17T19:13:34.849Z,28.14
2018-08-17T19:16:07.793Z,28.15
2018-08-17T19:18:40.656Z,28.17
2018-08-17T19:21:16.227Z,28.14
2018-08-17T19:23:49.078Z,28.09
2018-08-17T19:26:22.135Z,28.03
2018-08-17T19:28:56.589Z,28.01
2018-08-17T19:31:29.571Z,27.98
2018-08-17T19:34:02.537Z,27.98
2018-08-17T19:36:35.538Z,27.98
2018-08-17T19:39:09.471Z,27.96
2018-08-17T19:41:43.492Z,27.96
2018-08-17T19:44:16.696Z,27.96
2018-08-17T19:46:49.800Z,27.96
2018-08-17T19:49:22.895Z,27.94
2018-08-17T19:51:55.926Z,27.90
2018-08-17T19:54:28.965Z,27.86
2018-08-17T19:57:03.323Z,27.81
2018-08-17T19:59:36.414Z,27.78
2018-08-17T20:02:09.518Z,27.76
2018-08-17T20:07:13.502Z,27.68
2018-08-17T20:09:49.098Z,27.65
2018-08-17T20:12:23.100Z,27.65
2018-08-17T20:14:56.082Z,27.65
2018-08-17T20:17:29.173Z,27.65
2018-08-17T20:20:02.312Z,27.68
2018-08-17T20:22:35.714Z,27.73
2018-08-17T20:25:16.462Z,27.74
2018-08-17T20:27:49.669Z,27.81
2018-08-17T20:30:24.014Z,27.92
2018-08-17T20:32:57.086Z,28.01
2018-08-17T20:35:31.472Z,28.07
2018-08-17T20:38:04.622Z,28.09
2018-08-17T20:40:37.844Z,28.12
2018-08-17T20:43:11.090Z,28.14
2018-08-17T20:45:44.131Z,28.12
2018-08-17T20:48:17.254Z,28.12
2018-08-17T20:50:50.357Z,28.10
2018-08-17T20:53:24.384Z,28.12
2018-08-17T20:55:57.876Z,28.12
2018-08-17T20:58:30.965Z,28.12
2018-08-17T21:01:04.222Z,28.11
2018-08-17T21:03:37.335Z,28.11
2018-08-17T21:06:10.486Z,28.12
2018-08-17T21:08:43.689Z,28.12
2018-08-17T21:11:16.850Z,28.14
2018-08-17T21:13:49.973Z,28.13
2018-08-17T21:16:23.069Z,28.08
2018-08-17T21:18:57.173Z,28.07
2018-08-17T21:21:30.347Z,28.09
2018-08-17T21:24:03.752Z,28.10
2018-08-17T21:26:37.444Z,28.08
2018-08-17T21:29:10.562Z,28.10
2018-08-17T21:31:43.593Z,28.12
2018-08-17T21:34:16.814Z,28.10
2018-08-17T21:36:50.141Z,28.11
2018-08-17T21:39:23.515Z,28.09
2018-08-17T21:41:56.509Z,28.09
2018-08-17T21:44:29.384Z,28.11
2018-08-17T21:47:07.130Z,28.13
2018-08-17T21:49:39.930Z,28.13
2018-08-17T21:52:16.578Z,28.10
2018-08-17T21:54:49.505Z,28.12
2018-08-17T21:57:22.413Z,28.14
2018-08-17T21:59:55.290Z,28.16
2018-08-17T22:02:28.282Z,28.16
2018-08-17T22:05:01.320Z,28.20
2018-08-17T22:07:36.121Z,28.21
2018-08-17T22:10:09.524Z,28.21
2018-08-17T22:12:42.548Z,28.21
2018-08-17T22:15:15.896Z,28.25
2018-08-17T22:17:48.861Z,28.28
2018-08-17T22:20:21.874Z,28.31
2018-08-17T22:22:55.205Z,28.34
2018-08-17T22:25:28.316Z,28.34
2018-08-17T22:28:01.238Z,28.33
2018-08-17T22:30:34.129Z,28.33
2018-08-17T22:33:07.207Z,28.31
2018-08-17T22:35:40.234Z,28.31
2018-08-17T22:38:13.236Z,28.33
2018-08-17T22:40:46.283Z,28.33
2018-08-17T22:43:19.171Z,28.34
2018-08-17T22:45:52.581Z,28.33
2018-08-17T22:48:25.655Z,28.32
2018-08-17T22:50:58.589Z,28.32
2018-08-17T22:53:31.495Z,28.33
2018-08-17T22:56:04.497Z,28.33
2018-08-17T22:58:41.501Z,28.34
2018-08-17T23:01:14.877Z,28.32
2018-08-17T23:03:53.044Z,28.32
2018-08-17T23:06:27.808Z,28.32
2018-08-17T23:09:01.473Z,28.28
2018-08-17T23:11:38.209Z,28.26
2018-08-17T23:14:16.749Z,28.24
2018-08-17T23:16:50.801Z,28.24
2018-08-17T23:19:23.797Z,28.25
2018-08-17T23:21:56.785Z,28.25
2018-08-17T23:24:29.656Z,28.24
2018-08-17T23:27:02.748Z,28.24
2018-08-17T23:29:35.704Z,28.21
2018-08-17T23:32:09.056Z,28.21
2018-08-17T23:34:42.303Z,28.19
2018-08-17T23:37:15.510Z,28.22
2018-08-17T23:39:49.032Z,28.20
2018-08-17T23:42:22.546Z,28.24
2018-08-17T23:44:56.038Z,28.26
2018-08-17T23:47:29.742Z,28.28
2018-08-17T23:50:03.402Z,28.32
2018-08-17T23:52:37.941Z,28.38
2018-08-17T23:57:50.475Z,28.47
